Current Conditions
Rain
Conditions



Pressure
1011.92 (hPa) - 29.88 (inHG)
Visibility

5.0 (km) - 3.1 (miles)
Temperature
15  °C
Temperature
14  °C
Dewpoint
94  %
 Humidity
Wind Speed
4.0  m/s
9  mph
14  km/h
8  kts
Wind Direction
N
45°
E
90°
135°
S
180°
225°
W
270°
315°
 230°

South West
Airport Data
EKKA
Karup Airport
Metar :EKKA 062003Z 23008KT 5000 RA BKN005 OVC030 15/14 Q1012
Wed 6th July 22:03 pm
Raw Metar Info
Raw METAR is the most common format in the world for the transmission of observational weather data. It is highly standardized through the International Civil Aviation Organization (ICAO), which allows it to be understood throughout most of the world.
API Info
Data Provided by
https://www.checkwx.com/weather/EKKA

Aviation Weather providing METAR, TAF, AIRMET, SIGMET and OUTLOOK Weather Reports
© Info
CSS/SVG/PHP scripts were developed by weather34.com for use in the weather34 template © 2015-2022

Guide Info provided by Metar-Wikipedia